createdAt,value
2017-09-10T00:00:52.314Z,10.9
2017-09-10T00:01:54.676Z,10.8
2017-09-10T00:02:56.355Z,10.9
2017-09-10T00:03:58.721Z,10.9
2017-09-10T00:05:00.372Z,10.9
2017-09-10T00:06:02.030Z,10.8
2017-09-10T00:07:03.683Z,10.8
2017-09-10T00:08:05.355Z,10.8
2017-09-10T00:09:07.014Z,10.9
2017-09-10T00:10:09.621Z,10.8
2017-09-10T00:11:11.323Z,10.8
2017-09-10T00:12:13.038Z,10.8
2017-09-10T00:13:14.695Z,10.9
2017-09-10T00:14:16.365Z,10.9
2017-09-10T00:15:18.046Z,10.9
2017-09-10T00:16:20.217Z,10.9
2017-09-10T00:17:21.875Z,10.9
2017-09-10T00:18:23.538Z,10.9
2017-09-10T00:19:25.186Z,11.0
2017-09-10T00:20:28.105Z,11.0
2017-09-10T00:21:30.084Z,10.9
2017-09-10T00:22:31.889Z,10.9
2017-09-10T00:23:33.708Z,11.0
2017-09-10T00:24:35.839Z,10.9
2017-09-10T00:25:37.650Z,10.9
2017-09-10T00:26:39.346Z,10.9
2017-09-10T00:27:40.994Z,10.8
2017-09-10T00:28:42.679Z,10.9
2017-09-10T00:29:44.333Z,10.8
2017-09-10T00:30:46.005Z,10.9
2017-09-10T00:31:47.670Z,10.9
2017-09-10T00:32:49.327Z,10.8
2017-09-10T00:33:50.988Z,10.7
2017-09-10T00:34:53.808Z,10.8
2017-09-10T00:35:55.469Z,10.7
2017-09-10T00:36:57.122Z,10.7
2017-09-10T00:38:00.091Z,10.6
2017-09-10T00:39:01.739Z,10.4
2017-09-10T00:40:03.407Z,10.3
2017-09-10T00:41:05.064Z,10.2
2017-09-10T00:42:06.740Z,10.2
2017-09-10T00:43:09.282Z,10.1
2017-09-10T00:44:10.947Z,10.1
2017-09-10T00:45:12.624Z,10.2
2017-09-10T00:46:14.314Z,10.2
2017-09-10T00:47:15.979Z,10.3
2017-09-10T00:48:17.649Z,10.4
2017-09-10T00:49:19.330Z,10.5
2017-09-10T00:50:20.988Z,10.5
2017-09-10T00:51:22.632Z,10.5
2017-09-10T00:52:25.095Z,10.5
2017-09-10T00:53:26.749Z,10.4
2017-09-10T00:54:28.410Z,10.5
2017-09-10T00:55:30.070Z,10.5
2017-09-10T00:56:31.719Z,10.5
2017-09-10T00:57:34.028Z,10.4
2017-09-10T00:58:35.683Z,10.5
2017-09-10T00:59:37.339Z,10.5
2017-09-10T01:00:39.010Z,10.5
2017-09-10T01:01:40.670Z,10.4
2017-09-10T01:02:42.327Z,10.3
2017-09-10T01:03:44.029Z,10.3
2017-09-10T01:04:46.543Z,10.3
2017-09-10T01:05:48.817Z,10.3
2017-09-10T01:06:50.463Z,10.3
2017-09-10T01:07:52.787Z,10.3
2017-09-10T01:08:54.451Z,10.3
2017-09-10T01:09:56.100Z,10.3
2017-09-10T01:10:57.752Z,10.3
2017-09-10T01:12:00.042Z,10.2
2017-09-10T01:13:01.012Z,10.2
2017-09-10T01:14:05.192Z,10.3
2017-09-10T01:15:07.809Z,10.3
2017-09-10T01:16:09.461Z,10.3
2017-09-10T01:17:11.114Z,10.3
2017-09-10T01:18:12.778Z,10.3
2017-09-10T01:19:14.436Z,10.2
2017-09-10T01:20:16.761Z,10.1
2017-09-10T01:21:19.070Z,10.0
2017-09-10T01:22:21.691Z,9.9
2017-09-10T01:23:24.181Z,9.9
2017-09-10T01:24:25.832Z,10.0
2017-09-10T01:25:27.485Z,10.0
2017-09-10T01:26:29.139Z,9.9
2017-09-10T01:27:30.795Z,9.8
2017-09-10T01:28:33.144Z,9.8
2017-09-10T01:29:35.344Z,9.7
2017-09-10T01:30:36.995Z,9.7
2017-09-10T01:31:38.656Z,9.8
2017-09-10T01:32:41.287Z,9.9
2017-09-10T01:33:42.943Z,9.8
2017-09-10T01:34:44.601Z,9.7
2017-09-10T01:35:46.255Z,9.9
2017-09-10T01:36:47.903Z,9.6
2017-09-10T01:37:49.560Z,9.6
2017-09-10T01:38:51.759Z,9.6
2017-09-10T01:39:54.077Z,9.7
2017-09-10T01:40:55.741Z,9.6
2017-09-10T01:41:57.410Z,9.6
2017-09-10T01:42:59.058Z,9.6
2017-09-10T01:44:02.369Z,9.6
2017-09-10T01:45:04.664Z,9.7
2017-09-10T01:46:06.323Z,9.7
2017-09-10T01:47:07.979Z,9.7
2017-09-10T01:48:09.635Z,9.6
2017-09-10T01:49:11.298Z,9.6
2017-09-10T01:50:13.596Z,9.4
2017-09-10T01:51:15.253Z,9.5
2017-09-10T01:52:16.909Z,9.4
2017-09-10T01:53:18.566Z,9.4
2017-09-10T01:54:21.192Z,9.4
2017-09-10T01:55:23.814Z,9.6
2017-09-10T02:01:57.430Z,9.9
2017-09-10T02:02:59.096Z,9.9
2017-09-10T02:04:01.477Z,9.9
2017-09-10T02:05:03.116Z,10.0
2017-09-10T02:06:04.773Z,10.1
2017-09-10T02:07:06.457Z,10.1
2017-09-10T02:08:08.125Z,10.1
2017-09-10T02:09:09.783Z,10.2
2017-09-10T02:10:11.441Z,10.2
2017-09-10T02:11:13.100Z,10.1
2017-09-10T02:12:14.754Z,10.2
2017-09-10T02:13:16.404Z,10.2
2017-09-10T02:14:18.070Z,10.2
2017-09-10T02:15:20.436Z,10.2
2017-09-10T02:16:22.099Z,10.1
2017-09-10T02:17:23.752Z,10.2
2017-09-10T02:18:25.406Z,10.2
2017-09-10T02:19:27.065Z,10.2
2017-09-10T02:20:28.718Z,10.2
2017-09-10T02:21:30.378Z,10.2
2017-09-10T02:22:32.055Z,10.3
2017-09-10T02:23:34.508Z,10.3
2017-09-10T02:24:36.161Z,10.3
2017-09-10T02:25:37.823Z,10.3
2017-09-10T02:26:40.364Z,10.3
2017-09-10T02:27:42.018Z,10.3
2017-09-10T02:28:44.574Z,10.3
2017-09-10T02:29:46.226Z,10.2
2017-09-10T02:30:48.468Z,10.2
2017-09-10T02:31:50.117Z,10.2
2017-09-10T02:32:51.766Z,10.3
2017-09-10T02:33:53.419Z,10.3
2017-09-10T02:34:55.071Z,10.3
2017-09-10T02:35:57.411Z,10.3
2017-09-10T02:36:59.077Z,10.2
2017-09-10T02:38:01.419Z,10.3
2017-09-10T02:39:03.972Z,10.3
2017-09-10T02:40:05.636Z,10.3
2017-09-10T02:41:07.292Z,10.3
2017-09-10T02:42:08.951Z,10.3
2017-09-10T02:43:10.600Z,10.3
2017-09-10T02:44:12.256Z,10.3
2017-09-10T02:45:13.911Z,10.3
2017-09-10T02:46:15.577Z,10.3
2017-09-10T02:47:17.233Z,10.3
2017-09-10T02:48:18.886Z,10.3
2017-09-10T02:49:20.552Z,10.3
2017-09-10T02:50:22.205Z,10.3
2017-09-10T02:51:23.907Z,10.3
2017-09-10T02:52:25.587Z,10.3
2017-09-10T02:53:27.247Z,10.3
2017-09-10T02:54:28.915Z,10.3
2017-09-10T02:55:30.557Z,10.2
2017-09-10T02:56:32.209Z,10.3
2017-09-10T02:57:33.867Z,10.3
2017-09-10T02:58:35.543Z,10.3
2017-09-10T02:59:37.198Z,10.4
2017-09-10T03:00:38.859Z,10.4
2017-09-10T03:01:40.525Z,10.3
2017-09-10T03:02:43.945Z,10.3
2017-09-10T03:03:45.609Z,10.3
2017-09-10T03:04:47.263Z,10.3
2017-09-10T03:05:50.348Z,10.3
2017-09-10T03:06:52.006Z,10.3
2017-09-10T03:07:53.670Z,10.3
2017-09-10T03:08:55.327Z,10.3
2017-09-10T03:09:56.976Z,10.3
2017-09-10T03:10:59.137Z,10.3
2017-09-10T03:12:00.791Z,10.2
2017-09-10T03:13:02.436Z,10.3
2017-09-10T03:14:04.968Z,10.4
2017-09-10T03:15:06.618Z,10.3
2017-09-10T03:16:08.282Z,10.3
2017-09-10T03:17:09.931Z,10.3
2017-09-10T03:18:12.530Z,10.2
2017-09-10T03:19:14.196Z,10.3
2017-09-10T03:20:15.853Z,10.3
2017-09-10T03:21:19.335Z,10.3
2017-09-10T03:22:21.008Z,10.3
2017-09-10T03:23:22.660Z,10.3
2017-09-10T03:24:24.311Z,10.4
2017-09-10T03:25:25.961Z,10.3
2017-09-10T03:26:27.616Z,10.3
2017-09-10T03:27:29.293Z,10.3
2017-09-10T03:28:30.957Z,10.4
2017-09-10T03:29:32.615Z,10.3
2017-09-10T03:30:34.268Z,10.4
2017-09-10T03:31:35.921Z,10.4
2017-09-10T03:32:37.568Z,10.4
2017-09-10T03:33:39.231Z,10.4
2017-09-10T03:34:40.887Z,10.3
2017-09-10T03:35:42.542Z,10.3
2017-09-10T03:36:45.003Z,10.3
2017-09-10T03:37:46.659Z,10.3
2017-09-10T03:38:48.927Z,10.4
2017-09-10T03:39:50.583Z,10.4
2017-09-10T03:40:52.240Z,10.3
2017-09-10T03:41:53.885Z,10.3
2017-09-10T03:42:55.555Z,10.3
2017-09-10T03:43:57.209Z,10.3
2017-09-10T03:44:58.863Z,10.3
2017-09-10T03:46:01.182Z,10.3
2017-09-10T03:47:02.854Z,10.3
2017-09-10T03:48:05.337Z,10.4
2017-09-10T03:49:06.997Z,10.4
2017-09-10T03:50:08.650Z,10.4
2017-09-10T03:51:10.310Z,10.4
2017-09-10T03:52:11.961Z,10.3
2017-09-10T03:53:13.633Z,10.3
2017-09-10T03:54:15.291Z,10.3
2017-09-10T03:55:16.957Z,10.3
2017-09-10T03:56:19.184Z,10.3
2017-09-10T03:57:20.844Z,10.3
2017-09-10T03:58:22.493Z,10.3
2017-09-10T03:59:24.147Z,10.3
2017-09-10T04:00:25.897Z,10.3
2017-09-10T04:01:27.558Z,10.3
2017-09-10T04:02:29.216Z,10.3
2017-09-10T04:03:30.868Z,10.3
2017-09-10T04:04:32.521Z,10.3
2017-09-10T04:05:34.176Z,10.3
2017-09-10T04:06:35.851Z,10.3
2017-09-10T04:07:37.509Z,10.4
2017-09-10T04:08:39.162Z,10.5
2017-09-10T04:09:40.821Z,10.5
2017-09-10T04:10:42.490Z,10.4
2017-09-10T04:11:44.152Z,10.4
2017-09-10T04:12:45.810Z,10.5
2017-09-10T04:13:47.472Z,10.5
2017-09-10T04:14:49.127Z,10.5
2017-09-10T04:15:50.784Z,10.4
2017-09-10T04:16:52.440Z,10.4
2017-09-10T04:17:54.090Z,10.5
2017-09-10T04:18:55.756Z,10.4
2017-09-10T04:19:57.422Z,10.5
2017-09-10T04:20:59.079Z,10.4
2017-09-10T04:22:02.353Z,10.4
2017-09-10T04:23:04.782Z,10.4
2017-09-10T04:24:06.434Z,10.4
2017-09-10T04:25:08.947Z,10.3
2017-09-10T04:26:10.614Z,10.3
2017-09-10T04:27:12.269Z,10.3
2017-09-10T04:28:13.936Z,10.3
2017-09-10T04:29:15.591Z,10.3
2017-09-10T04:30:17.290Z,10.3
2017-09-10T04:31:18.941Z,10.3
2017-09-10T04:32:20.613Z,10.4
2017-09-10T04:33:23.141Z,10.3
2017-09-10T04:34:25.664Z,10.3
2017-09-10T04:35:27.331Z,10.4
2017-09-10T04:36:29.514Z,10.4
2017-09-10T04:37:31.180Z,10.3
2017-09-10T04:38:32.845Z,10.4
2017-09-10T04:39:34.497Z,10.4
2017-09-10T04:40:36.174Z,10.4
2017-09-10T04:41:37.831Z,10.5
2017-09-10T04:42:39.535Z,10.5
2017-09-10T04:43:42.515Z,10.5
2017-09-10T04:44:44.168Z,10.5
2017-09-10T04:45:46.742Z,10.5
2017-09-10T04:46:49.267Z,10.4
2017-09-10T04:47:50.934Z,10.3
2017-09-10T04:48:52.585Z,10.4
2017-09-10T04:49:55.154Z,10.4
2017-09-10T04:50:56.813Z,10.4
2017-09-10T04:52:00.334Z,10.3
2017-09-10T04:53:01.990Z,10.4
2017-09-10T04:54:04.502Z,10.4
2017-09-10T04:55:06.160Z,10.4
2017-09-10T04:56:07.824Z,10.4
2017-09-10T04:57:09.484Z,10.4
2017-09-10T04:58:11.140Z,10.4
2017-09-10T04:59:12.798Z,10.4
2017-09-10T05:00:15.328Z,10.6
2017-09-10T05:01:16.995Z,10.5
2017-09-10T05:02:19.515Z,10.6
2017-09-10T05:03:21.180Z,10.6
2017-09-10T05:04:22.839Z,10.5
2017-09-10T05:05:25.509Z,10.5
2017-09-10T05:06:27.163Z,10.6
2017-09-10T05:07:28.829Z,10.6
2017-09-10T05:08:30.480Z,10.6
2017-09-10T05:09:32.134Z,10.6
2017-09-10T05:10:33.794Z,10.5
2017-09-10T05:11:35.449Z,10.5
2017-09-10T05:12:37.105Z,10.4
2017-09-10T05:13:38.767Z,10.4
2017-09-10T05:14:41.068Z,10.5
2017-09-10T05:15:42.798Z,10.5
2017-09-10T05:16:44.459Z,10.5
2017-09-10T05:17:46.867Z,10.6
2017-09-10T05:18:48.533Z,10.6
2017-09-10T05:19:50.197Z,10.6
2017-09-10T05:20:51.864Z,10.6
2017-09-10T05:21:53.540Z,10.6
2017-09-10T05:22:55.257Z,10.5
2017-09-10T05:23:56.928Z,10.5
2017-09-10T05:24:58.586Z,10.6
2017-09-10T05:26:01.053Z,10.6
2017-09-10T05:27:02.715Z,10.6
2017-09-10T05:28:04.375Z,10.5
2017-09-10T05:29:06.034Z,10.3
2017-09-10T05:30:07.694Z,10.3
2017-09-10T05:31:09.356Z,10.3
2017-09-10T05:32:11.013Z,10.3
2017-09-10T05:33:12.672Z,10.2
2017-09-10T05:34:14.328Z,10.2
2017-09-10T05:35:16.034Z,10.3
2017-09-10T05:36:17.745Z,10.3
2017-09-10T05:37:19.405Z,10.4
2017-09-10T05:38:21.070Z,10.4
2017-09-10T05:39:22.744Z,10.5
2017-09-10T05:40:25.099Z,10.5
2017-09-10T05:41:26.761Z,10.6
2017-09-10T05:42:28.424Z,10.6
2017-09-10T05:43:30.088Z,10.5
2017-09-10T05:44:31.751Z,10.6
2017-09-10T05:45:33.422Z,10.7
2017-09-10T05:46:35.093Z,10.7
2017-09-10T05:47:36.756Z,10.7
2017-09-10T05:48:38.420Z,10.7
2017-09-10T05:49:40.711Z,10.8
2017-09-10T05:50:43.122Z,10.8
2017-09-10T05:51:45.338Z,10.8
2017-09-10T05:52:47.842Z,10.8
2017-09-10T05:53:49.417Z,10.8
2017-09-10T05:54:51.080Z,10.9
2017-09-10T06:01:27.636Z,10.8
2017-09-10T06:02:29.293Z,10.8
2017-09-10T06:04:21.111Z,10.9
2017-09-10T06:05:23.388Z,10.9
2017-09-10T06:06:25.129Z,10.9
2017-09-10T06:07:26.787Z,10.9
2017-09-10T06:08:29.906Z,11.0
2017-09-10T06:09:31.578Z,11.0
2017-09-10T06:10:33.235Z,11.0
2017-09-10T06:11:35.786Z,11.1
2017-09-10T06:12:37.450Z,11.1
2017-09-10T06:13:42.387Z,11.2
2017-09-10T06:14:43.152Z,11.1
2017-09-10T06:15:45.304Z,11.0
2017-09-10T06:16:46.981Z,11.2
2017-09-10T06:17:48.649Z,11.1
2017-09-10T06:18:50.310Z,11.1
2017-09-10T06:19:51.978Z,11.0
2017-09-10T06:20:53.648Z,11.0
2017-09-10T06:21:55.305Z,11.1
2017-09-10T06:22:56.992Z,11.1
2017-09-10T06:23:58.656Z,11.1
2017-09-10T06:25:01.144Z,11.1
2017-09-10T06:26:02.804Z,11.1
2017-09-10T06:27:04.468Z,11.2
2017-09-10T06:28:06.132Z,11.1
2017-09-10T06:29:07.801Z,11.2
2017-09-10T06:30:09.480Z,11.3
2017-09-10T06:31:11.186Z,11.1
2017-09-10T06:32:12.815Z,11.3
2017-09-10T06:33:14.476Z,11.4
2017-09-10T06:34:16.139Z,11.4
2017-09-10T06:35:17.809Z,11.4
2017-09-10T06:36:19.464Z,11.5
2017-09-10T06:37:21.127Z,11.5
2017-09-10T06:38:22.785Z,11.6
2017-09-10T06:39:24.459Z,11.5
2017-09-10T06:40:26.118Z,11.5
2017-09-10T06:41:27.789Z,11.4
2017-09-10T06:42:29.448Z,11.4
2017-09-10T06:43:31.120Z,11.4
2017-09-10T06:44:35.538Z,11.5
2017-09-10T06:45:37.217Z,11.4
2017-09-10T06:46:38.895Z,11.4
2017-09-10T06:47:41.200Z,11.5
2017-09-10T06:48:42.853Z,11.5
2017-09-10T06:49:45.088Z,11.6
2017-09-10T06:50:46.771Z,11.7
2017-09-10T06:51:50.201Z,11.7
2017-09-10T06:52:52.441Z,11.7
2017-09-10T06:53:54.114Z,11.8
2017-09-10T06:54:55.791Z,11.9
2017-09-10T06:55:57.449Z,11.8
2017-09-10T06:56:59.141Z,12.0
2017-09-10T06:58:01.463Z,11.9
2017-09-10T06:59:04.946Z,11.9
2017-09-10T07:00:06.606Z,11.8
2017-09-10T07:01:08.264Z,11.8
2017-09-10T07:02:09.928Z,11.7
2017-09-10T07:03:11.593Z,11.7
2017-09-10T07:04:13.274Z,11.6
2017-09-10T07:05:14.937Z,11.7
2017-09-10T07:06:17.126Z,11.8
2017-09-10T07:07:18.793Z,11.8
2017-09-10T07:08:20.457Z,11.8
2017-09-10T07:09:22.120Z,11.8
2017-09-10T07:10:23.782Z,11.8
2017-09-10T07:11:25.440Z,11.9
2017-09-10T07:12:27.120Z,11.8
2017-09-10T07:13:28.777Z,11.8
2017-09-10T07:14:30.446Z,11.9
2017-09-10T07:15:32.123Z,11.8
2017-09-10T07:16:34.788Z,11.9
2017-09-10T07:17:36.448Z,11.9
2017-09-10T07:18:38.972Z,11.9
2017-09-10T07:19:40.637Z,11.9
2017-09-10T07:20:42.300Z,11.9
2017-09-10T07:21:44.546Z,12.0
2017-09-10T07:22:46.217Z,11.8
2017-09-10T07:23:49.186Z,11.9
2017-09-10T07:24:50.849Z,11.9
2017-09-10T07:25:52.472Z,11.9
2017-09-10T07:26:54.769Z,11.9
2017-09-10T07:27:57.376Z,11.9
2017-09-10T07:28:59.140Z,12.1
2017-09-10T07:30:01.819Z,12.1
2017-09-10T07:31:04.969Z,12.0
2017-09-10T07:32:06.643Z,11.9
2017-09-10T07:33:10.101Z,11.9
2017-09-10T07:34:11.770Z,12.0
2017-09-10T07:35:13.434Z,11.8
2017-09-10T07:36:20.399Z,11.9
2017-09-10T07:37:21.089Z,12.0
2017-09-10T07:38:22.765Z,12.1
2017-09-10T07:39:24.430Z,12.1
2017-09-10T07:40:26.943Z,12.4
2017-09-10T07:41:28.805Z,12.5
2017-09-10T07:42:31.118Z,12.6
2017-09-10T07:43:32.837Z,12.5
2017-09-10T07:44:34.516Z,12.8
2017-09-10T07:45:36.289Z,12.7
2017-09-10T07:46:38.522Z,12.8
2017-09-10T07:47:40.465Z,12.8
2017-09-10T07:48:43.954Z,12.8
2017-09-10T07:49:45.893Z,12.8
2017-09-10T07:50:49.401Z,12.9
2017-09-10T07:51:52.032Z,12.9
2017-09-10T07:52:55.538Z,12.8
2017-09-10T07:53:59.298Z,12.6
2017-09-10T07:55:02.251Z,12.7
2017-09-10T07:56:03.911Z,12.6
2017-09-10T07:57:06.905Z,12.7
2017-09-10T07:58:10.714Z,12.8
2017-09-10T07:59:14.901Z,13.0
2017-09-10T08:00:17.588Z,12.9
2017-09-10T08:01:21.311Z,12.9
2017-09-10T08:02:23.925Z,12.8
2017-09-10T08:03:29.120Z,12.8
2017-09-10T08:04:31.549Z,12.9
2017-09-10T08:05:34.809Z,13.0
2017-09-10T08:06:38.032Z,13.0
2017-09-10T08:07:40.766Z,13.0
2017-09-10T08:08:43.238Z,13.0
2017-09-10T08:09:47.238Z,13.0
2017-09-10T08:10:50.581Z,12.9
2017-09-10T08:11:54.016Z,13.0
2017-09-10T08:12:56.969Z,12.9
2017-09-10T08:13:59.559Z,13.0
2017-09-10T08:15:02.561Z,12.9
2017-09-10T08:16:05.519Z,12.9
2017-09-10T08:17:08.951Z,12.8
2017-09-10T08:18:13.068Z,12.8
2017-09-10T08:19:15.633Z,12.8
2017-09-10T08:20:18.213Z,13.0
2017-09-10T08:21:21.407Z,13.0
2017-09-10T08:22:23.643Z,13.0
2017-09-10T08:23:27.998Z,13.1
2017-09-10T08:24:32.598Z,13.2
2017-09-10T08:25:35.583Z,13.2
2017-09-10T08:26:38.590Z,13.3
2017-09-10T08:27:41.942Z,13.4
2017-09-10T08:28:44.994Z,13.3
2017-09-10T08:29:47.142Z,13.3
2017-09-10T08:30:51.413Z,13.5
2017-09-10T08:31:53.193Z,13.6
2017-09-10T08:32:55.567Z,13.5
2017-09-10T08:33:57.228Z,13.6
2017-09-10T08:34:59.995Z,13.4
2017-09-10T08:36:01.664Z,13.3
2017-09-10T08:37:04.276Z,13.2
2017-09-10T08:38:06.642Z,13.1
2017-09-10T08:39:10.699Z,13.3
2017-09-10T08:40:13.868Z,13.3
2017-09-10T08:41:17.013Z,13.4
2017-09-10T08:42:19.257Z,13.4
2017-09-10T08:43:21.958Z,13.4
2017-09-10T08:44:26.101Z,13.5
2017-09-10T08:45:31.013Z,13.6
2017-09-10T08:46:33.428Z,13.6
2017-09-10T08:47:36.379Z,13.7
2017-09-10T08:48:39.474Z,13.9
2017-09-10T08:49:41.920Z,13.9
2017-09-10T08:50:45.279Z,13.9
2017-09-10T08:51:47.841Z,13.8
2017-09-10T08:52:51.489Z,13.7
2017-09-10T08:53:54.079Z,13.6
2017-09-10T08:54:58.966Z,13.6
2017-09-10T08:56:01.643Z,13.4
2017-09-10T08:57:03.798Z,13.4
2017-09-10T08:58:07.053Z,13.5
2017-09-10T08:59:10.975Z,13.5
2017-09-10T09:00:13.600Z,13.7
2017-09-10T09:01:16.849Z,13.7
2017-09-10T09:02:19.950Z,13.7
2017-09-10T09:03:21.608Z,13.8
2017-09-10T09:04:24.718Z,13.7
2017-09-10T09:05:27.035Z,13.7
2017-09-10T09:06:30.909Z,13.7
2017-09-10T09:07:33.216Z,13.7
2017-09-10T09:08:35.476Z,13.7
2017-09-10T09:09:37.143Z,13.7
2017-09-10T09:10:42.926Z,13.7
2017-09-10T09:11:45.620Z,13.9
2017-09-10T09:12:47.938Z,13.8
2017-09-10T09:13:51.970Z,13.9
2017-09-10T09:14:55.030Z,14.0
2017-09-10T09:15:56.706Z,14.1
2017-09-10T09:16:59.703Z,14.0
2017-09-10T09:18:03.478Z,14.1
2017-09-10T09:19:05.178Z,14.0
2017-09-10T09:20:08.184Z,14.0
2017-09-10T09:21:13.922Z,14.1
2017-09-10T09:22:20.984Z,14.4
2017-09-10T09:23:24.830Z,14.5
2017-09-10T09:24:28.023Z,15.5
2017-09-10T09:25:30.251Z,16.7
2017-09-10T09:26:34.193Z,17.9
2017-09-10T09:27:39.417Z,18.8
2017-09-10T09:28:43.484Z,18.9
2017-09-10T09:29:46.700Z,18.2
2017-09-10T09:30:52.424Z,17.7
2017-09-10T09:31:59.530Z,17.3
2017-09-10T09:33:03.645Z,16.8
2017-09-10T09:34:05.507Z,16.8
2017-09-10T09:35:08.534Z,16.7
2017-09-10T09:36:12.422Z,16.6
2017-09-10T09:37:14.213Z,16.5
2017-09-10T09:38:16.646Z,16.7
2017-09-10T09:39:18.358Z,16.6
2017-09-10T09:40:20.872Z,16.7
2017-09-10T09:41:23.475Z,17.0
2017-09-10T09:42:26.537Z,16.8
2017-09-10T09:43:28.888Z,17.0
2017-09-10T09:44:31.729Z,16.9
2017-09-10T09:45:35.065Z,16.6
2017-09-10T09:46:39.419Z,16.3
2017-09-10T09:47:43.009Z,16.1
2017-09-10T09:48:46.277Z,16.0
2017-09-10T09:49:49.365Z,15.9
2017-09-10T09:50:52.709Z,15.9
2017-09-10T09:51:56.992Z,16.0
2017-09-10T09:53:00.728Z,16.1
2017-09-10T09:54:05.008Z,16.1
2017-09-10T09:55:09.640Z,16.1
2017-09-10T10:01:07.252Z,16.1
2017-09-10T10:02:09.876Z,16.2
2017-09-10T10:03:13.088Z,16.2
2017-09-10T10:04:18.042Z,16.5
2017-09-10T10:05:19.199Z,16.9
2017-09-10T10:06:22.370Z,16.7
2017-09-10T10:07:25.012Z,16.5
2017-09-10T10:08:29.232Z,16.5
2017-09-10T10:09:34.682Z,17.2
2017-09-10T10:10:37.796Z,18.3
2017-09-10T10:11:41.860Z,19.1
2017-09-10T10:12:45.100Z,19.7
2017-09-10T10:13:49.174Z,19.7
2017-09-10T10:14:53.992Z,19.1
2017-09-10T10:15:54.699Z,19.7
2017-09-10T10:16:57.632Z,19.7
2017-09-10T10:18:03.980Z,19.9
2017-09-10T10:19:06.923Z,20.1
2017-09-10T10:20:10.548Z,20.8
2017-09-10T10:21:13.830Z,20.7
2017-09-10T10:22:17.640Z,20.7
2017-09-10T10:23:20.088Z,20.8
2017-09-10T10:24:24.807Z,20.0
2017-09-10T10:25:26.479Z,19.8
2017-09-10T10:26:29.100Z,19.8
2017-09-10T10:27:32.650Z,20.2
2017-09-10T10:28:35.919Z,20.0
2017-09-10T10:29:40.189Z,19.8
2017-09-10T10:30:42.825Z,19.1
2017-09-10T10:31:45.305Z,19.6
2017-09-10T10:32:47.625Z,19.9
2017-09-10T10:33:50.299Z,19.7
2017-09-10T10:34:53.419Z,19.2
2017-09-10T10:35:55.109Z,19.3
2017-09-10T10:36:56.789Z,19.0
2017-09-10T10:38:02.530Z,19.1
2017-09-10T10:39:05.324Z,19.2
2017-09-10T10:40:08.559Z,18.8
2017-09-10T10:41:12.942Z,18.9
2017-09-10T10:42:15.339Z,18.5
2017-09-10T10:43:17.017Z,18.4
2017-09-10T10:44:19.647Z,18.5
2017-09-10T10:45:25.255Z,17.8
2017-09-10T10:46:28.490Z,18.0
2017-09-10T10:47:30.140Z,17.9
2017-09-10T10:48:33.504Z,17.4
2017-09-10T10:49:35.706Z,17.6
2017-09-10T10:50:38.189Z,17.4
2017-09-10T10:51:42.692Z,17.3
2017-09-10T10:52:44.992Z,17.0
2017-09-10T10:53:46.772Z,17.0
2017-09-10T10:54:50.177Z,17.2
2017-09-10T10:55:52.561Z,17.2
2017-09-10T10:56:58.004Z,17.0
2017-09-10T10:57:59.767Z,16.9
2017-09-10T10:59:02.028Z,16.9
2017-09-10T11:00:07.996Z,17.1
2017-09-10T11:01:09.669Z,17.2
2017-09-10T11:02:12.582Z,17.2
2017-09-10T11:03:16.435Z,17.2
2017-09-10T11:04:20.056Z,17.0
2017-09-10T11:05:22.670Z,16.8
2017-09-10T11:06:25.766Z,16.6
2017-09-10T11:07:28.090Z,16.6
2017-09-10T11:08:30.503Z,16.4
2017-09-10T11:09:31.391Z,16.3
2017-09-10T11:10:33.554Z,16.1
2017-09-10T11:11:36.072Z,16.1
2017-09-10T11:12:39.339Z,15.9
2017-09-10T11:13:43.496Z,15.7
2017-09-10T11:14:45.834Z,15.6
2017-09-10T11:15:49.241Z,15.5
2017-09-10T11:16:50.939Z,15.4
2017-09-10T11:17:53.491Z,15.3
2017-09-10T11:18:55.978Z,15.2
2017-09-10T11:20:02.282Z,15.1
2017-09-10T11:21:05.459Z,15.1
2017-09-10T11:22:08.000Z,15.0
2017-09-10T11:23:09.448Z,15.1
2017-09-10T11:24:12.041Z,15.1
2017-09-10T11:25:14.866Z,15.1
2017-09-10T11:26:19.134Z,15.0
2017-09-10T11:27:21.792Z,15.0
2017-09-10T11:28:23.475Z,15.1
2017-09-10T11:29:26.578Z,15.1
2017-09-10T11:30:29.538Z,15.1
2017-09-10T11:31:34.133Z,15.1
2017-09-10T11:32:37.126Z,15.1
2017-09-10T11:33:40.256Z,15.3
2017-09-10T11:34:42.624Z,15.3
2017-09-10T11:35:44.944Z,15.5
2017-09-10T11:36:46.676Z,16.4
2017-09-10T11:37:50.007Z,17.6
2017-09-10T11:38:56.063Z,18.4
2017-09-10T11:40:00.753Z,19.3
2017-09-10T11:41:03.004Z,20.2
2017-09-10T11:42:05.370Z,20.1
2017-09-10T11:43:07.605Z,19.9
2017-09-10T11:44:11.056Z,19.1
2017-09-10T11:45:14.250Z,19.0
2017-09-10T11:46:19.914Z,18.6
2017-09-10T11:47:25.152Z,17.9
2017-09-10T11:48:28.517Z,17.7
2017-09-10T11:49:30.980Z,17.4
2017-09-10T11:50:34.005Z,17.2
2017-09-10T11:51:34.955Z,16.7
2017-09-10T11:52:38.087Z,16.4
2017-09-10T11:53:40.691Z,16.4
2017-09-10T11:54:44.001Z,16.3
2017-09-10T11:55:46.341Z,16.5
2017-09-10T11:56:52.211Z,16.5
2017-09-10T11:57:55.007Z,16.9
2017-09-10T11:58:56.028Z,17.6
2017-09-10T11:59:59.795Z,18.4
2017-09-10T12:01:04.508Z,19.0
2017-09-10T12:02:07.188Z,19.3
2017-09-10T12:03:11.310Z,18.7
2017-09-10T12:04:14.382Z,18.4
2017-09-10T12:05:17.511Z,17.8
2017-09-10T12:06:18.622Z,17.1
2017-09-10T12:07:21.160Z,16.8
2017-09-10T12:08:23.587Z,16.6
2017-09-10T12:09:26.740Z,16.5
2017-09-10T12:10:29.237Z,16.5
2017-09-10T12:11:31.659Z,16.5
2017-09-10T12:12:35.565Z,16.6
2017-09-10T12:13:39.571Z,16.6
2017-09-10T12:14:42.788Z,16.7
2017-09-10T12:15:46.563Z,16.6
2017-09-10T12:16:52.230Z,16.8
2017-09-10T12:17:55.315Z,16.7
2017-09-10T12:18:58.982Z,16.9
2017-09-10T12:20:02.522Z,16.9
2017-09-10T12:21:05.108Z,16.8
2017-09-10T12:22:08.645Z,16.8
2017-09-10T12:23:10.353Z,16.9
2017-09-10T12:24:12.029Z,16.8
2017-09-10T12:25:14.627Z,16.6
2017-09-10T12:26:16.348Z,16.7
2017-09-10T12:27:18.628Z,16.6
2017-09-10T12:28:22.669Z,16.6
2017-09-10T12:29:25.205Z,16.7
2017-09-10T12:30:26.881Z,16.3
2017-09-10T12:31:29.075Z,16.5
2017-09-10T12:32:30.775Z,16.6
2017-09-10T12:33:34.752Z,16.9
2017-09-10T12:34:37.656Z,16.9
2017-09-10T12:35:40.673Z,16.9
2017-09-10T12:36:44.596Z,16.7
2017-09-10T12:37:47.133Z,16.6
2017-09-10T12:38:48.969Z,16.6
2017-09-10T12:39:53.155Z,16.4
2017-09-10T12:40:55.574Z,16.2
2017-09-10T12:41:59.018Z,16.1
2017-09-10T12:43:01.678Z,16.3
2017-09-10T12:44:04.405Z,16.3
2017-09-10T12:45:09.671Z,16.5
2017-09-10T12:46:11.477Z,16.8
2017-09-10T12:47:13.124Z,17.0
2017-09-10T12:48:15.517Z,17.2
2017-09-10T12:49:17.106Z,17.3
2017-09-10T12:50:19.776Z,17.5
2017-09-10T12:51:22.019Z,17.4
2017-09-10T12:52:23.171Z,17.2
2017-09-10T12:53:25.683Z,17.1
2017-09-10T12:54:29.156Z,17.0
2017-09-10T12:55:33.090Z,17.0
2017-09-10T12:56:36.018Z,17.0
2017-09-10T12:57:37.841Z,17.2
2017-09-10T12:58:41.674Z,17.3
2017-09-10T12:59:44.090Z,17.3
2017-09-10T13:00:46.435Z,17.2
2017-09-10T13:01:48.102Z,17.1
2017-09-10T13:02:49.840Z,16.9
2017-09-10T13:03:53.688Z,16.8
2017-09-10T13:04:57.016Z,16.7
2017-09-10T13:06:01.135Z,16.7
2017-09-10T13:07:05.863Z,16.9
2017-09-10T13:08:09.846Z,17.0
2017-09-10T13:09:13.278Z,17.3
2017-09-10T13:10:17.522Z,17.6
2017-09-10T13:11:22.178Z,18.4
2017-09-10T13:12:25.316Z,18.9
2017-09-10T13:13:27.807Z,18.7
2017-09-10T13:14:30.787Z,18.0
2017-09-10T13:15:34.784Z,17.9
2017-09-10T13:16:37.924Z,17.7
2017-09-10T13:17:42.773Z,17.6
2017-09-10T13:18:45.729Z,17.4
2017-09-10T13:19:48.022Z,17.4
2017-09-10T13:20:50.951Z,17.4
2017-09-10T13:21:53.555Z,17.4
2017-09-10T13:22:56.210Z,17.4
2017-09-10T13:24:00.199Z,17.4
2017-09-10T13:25:04.025Z,17.2
2017-09-10T13:26:06.174Z,17.3
2017-09-10T13:27:10.525Z,17.5
2017-09-10T13:28:12.589Z,17.7
2017-09-10T13:29:15.694Z,18.2
2017-09-10T13:30:19.964Z,18.9
2017-09-10T13:31:24.186Z,19.3
2017-09-10T13:32:28.647Z,19.7
2017-09-10T13:33:33.528Z,19.6
2017-09-10T13:34:37.057Z,19.2
2017-09-10T13:35:42.789Z,18.7
2017-09-10T13:36:47.031Z,18.3
2017-09-10T13:37:56.042Z,17.9
2017-09-10T13:39:05.755Z,17.7
2017-09-10T13:40:09.736Z,17.4
2017-09-10T13:41:13.641Z,17.3
2017-09-10T13:42:16.742Z,17.4
2017-09-10T13:43:20.657Z,17.6
2017-09-10T13:44:23.722Z,17.5
2017-09-10T13:45:27.590Z,17.6
2017-09-10T13:46:31.894Z,18.3
2017-09-10T13:47:33.559Z,18.9
2017-09-10T13:48:36.110Z,19.0
2017-09-10T13:49:38.663Z,19.2
2017-09-10T13:50:42.531Z,19.6
2017-09-10T13:51:45.476Z,19.8
2017-09-10T13:52:48.110Z,19.7
2017-09-10T13:53:51.504Z,19.2
2017-09-10T13:54:54.995Z,19.1
2017-09-10T13:55:59.531Z,19.2
2017-09-10T14:01:54.913Z,18.9
2017-09-10T14:02:59.323Z,18.6
2017-09-10T14:04:02.271Z,18.2
2017-09-10T14:05:06.624Z,17.9
2017-09-10T14:06:08.220Z,17.8
2017-09-10T14:07:11.248Z,17.8
2017-09-10T14:08:13.781Z,17.8
2017-09-10T14:09:17.077Z,17.6
2017-09-10T14:10:22.738Z,17.5
2017-09-10T14:11:25.118Z,17.3
2017-09-10T14:12:27.534Z,17.3
2017-09-10T14:13:32.428Z,17.6
2017-09-10T14:14:35.609Z,18.0